sensor_id;sensor_type;location;lat;lon;timestamp;P1;durP1;ratioP1;P2;durP2;ratioP2
38909;SDS011;24676;51.360;12.354;2023-02-11T00:02:19;11.90;;;5.43;;
38909;SDS011;24676;51.360;12.354;2023-02-11T00:05:04;12.63;;;5.68;;
38909;SDS011;24676;51.360;12.354;2023-02-11T00:07:49;13.27;;;5.03;;
38909;SDS011;24676;51.360;12.354;2023-02-11T00:10:33;15.15;;;7.70;;
38909;SDS011;24676;51.360;12.354;2023-02-11T00:13:17;12.75;;;7.43;;
38909;SDS011;24676;51.360;12.354;2023-02-11T00:16:09;18.33;;;6.30;;
38909;SDS011;24676;51.360;12.354;2023-02-11T00:18:55;12.50;;;7.05;;
38909;SDS011;24676;51.360;12.354;2023-02-11T00:21:42;8.88;;;6.40;;
38909;SDS011;24676;51.360;12.354;2023-02-11T00:24:27;14.05;;;6.45;;
38909;SDS011;24676;51.360;12.354;2023-02-11T00:32:44;10.82;;;5.40;;
38909;SDS011;24676;51.360;12.354;2023-02-11T00:35:28;15.20;;;7.55;;
38909;SDS011;24676;51.360;12.354;2023-02-11T00:38:13;15.63;;;6.82;;
38909;SDS011;24676;51.360;12.354;2023-02-11T00:40:57;9.38;;;6.10;;
38909;SDS011;24676;51.360;12.354;2023-02-11T00:43:41;9.65;;;6.47;;
38909;SDS011;24676;51.360;12.354;2023-02-11T00:46:26;11.98;;;6.95;;
38909;SDS011;24676;51.360;12.354;2023-02-11T00:49:10;18.33;;;7.88;;
38909;SDS011;24676;51.360;12.354;2023-02-11T00:51:55;12.82;;;7.13;;
38909;SDS011;24676;51.360;12.354;2023-02-11T00:54:39;14.32;;;7.63;;
38909;SDS011;24676;51.360;12.354;2023-02-11T00:57:23;21.35;;;7.72;;
38909;SDS011;24676;51.360;12.354;2023-02-11T01:00:08;12.55;;;6.55;;
38909;SDS011;24676;51.360;12.354;2023-02-11T01:02:55;14.98;;;7.60;;
38909;SDS011;24676;51.360;12.354;2023-02-11T01:05:39;17.70;;;7.90;;
38909;SDS011;24676;51.360;12.354;2023-02-11T01:08:24;14.57;;;5.68;;
38909;SDS011;24676;51.360;12.354;2023-02-11T01:11:13;18.27;;;7.13;;
38909;SDS011;24676;51.360;12.354;2023-02-11T01:13:59;15.93;;;7.03;;
38909;SDS011;24676;51.360;12.354;2023-02-11T01:16:44;9.23;;;7.45;;
38909;SDS011;24676;51.360;12.354;2023-02-11T01:19:28;18.15;;;5.75;;
38909;SDS011;24676;51.360;12.354;2023-02-11T01:22:12;11.27;;;6.15;;
38909;SDS011;24676;51.360;12.354;2023-02-11T01:24:56;13.27;;;6.88;;
38909;SDS011;24676;51.360;12.354;2023-02-11T01:27:41;12.65;;;6.78;;
38909;SDS011;24676;51.360;12.354;2023-02-11T01:30:25;14.88;;;6.55;;
38909;SDS011;24676;51.360;12.354;2023-02-11T01:33:10;15.55;;;8.55;;
38909;SDS011;24676;51.360;12.354;2023-02-11T01:35:54;15.23;;;6.13;;
38909;SDS011;24676;51.360;12.354;2023-02-11T01:38:38;10.87;;;8.10;;
38909;SDS011;24676;51.360;12.354;2023-02-11T01:41:23;10.90;;;7.03;;
38909;SDS011;24676;51.360;12.354;2023-02-11T01:47:10;18.55;;;9.30;;
38909;SDS011;24676;51.360;12.354;2023-02-11T01:49:56;11.00;;;7.03;;
38909;SDS011;24676;51.360;12.354;2023-02-11T01:52:41;12.75;;;6.10;;
38909;SDS011;24676;51.360;12.354;2023-02-11T01:55:28;11.38;;;6.47;;
38909;SDS011;24676;51.360;12.354;2023-02-11T01:58:31;16.73;;;7.85;;
38909;SDS011;24676;51.360;12.354;2023-02-11T02:01:21;18.50;;;5.70;;
38909;SDS011;24676;51.360;12.354;2023-02-11T02:04:09;11.80;;;6.10;;
38909;SDS011;24676;51.360;12.354;2023-02-11T02:07:29;8.35;;;5.38;;
38909;SDS011;24676;51.360;12.354;2023-02-11T02:10:13;10.57;;;6.22;;
38909;SDS011;24676;51.360;12.354;2023-02-11T02:13:01;16.90;;;8.90;;
38909;SDS011;24676;51.360;12.354;2023-02-11T02:15:49;16.15;;;6.55;;
38909;SDS011;24676;51.360;12.354;2023-02-11T02:21:55;12.97;;;7.77;;
38909;SDS011;24676;51.360;12.354;2023-02-11T02:25:10;16.58;;;6.75;;
38909;SDS011;24676;51.360;12.354;2023-02-11T02:28:22;15.57;;;7.35;;
38909;SDS011;24676;51.360;12.354;2023-02-11T02:34:27;13.98;;;7.15;;
38909;SDS011;24676;51.360;12.354;2023-02-11T02:37:20;18.70;;;8.35;;
38909;SDS011;24676;51.360;12.354;2023-02-11T02:40:23;17.15;;;7.05;;
38909;SDS011;24676;51.360;12.354;2023-02-11T02:43:23;13.38;;;8.30;;
38909;SDS011;24676;51.360;12.354;2023-02-11T02:46:14;13.10;;;6.80;;
38909;SDS011;24676;51.360;12.354;2023-02-11T02:49:01;13.63;;;5.73;;
38909;SDS011;24676;51.360;12.354;2023-02-11T02:55:16;16.15;;;5.90;;
38909;SDS011;24676;51.360;12.354;2023-02-11T02:58:56;12.80;;;7.05;;
38909;SDS011;24676;51.360;12.354;2023-02-11T03:04:37;14.32;;;7.20;;
38909;SDS011;24676;51.360;12.354;2023-02-11T03:07:51;16.55;;;7.28;;
38909;SDS011;24676;51.360;12.354;2023-02-11T03:10:42;16.95;;;6.80;;
38909;SDS011;24676;51.360;12.354;2023-02-11T03:13:33;20.23;;;8.18;;
38909;SDS011;24676;51.360;12.354;2023-02-11T03:16:24;15.18;;;7.80;;
38909;SDS011;24676;51.360;12.354;2023-02-11T03:19:12;12.50;;;7.13;;
38909;SDS011;24676;51.360;12.354;2023-02-11T03:21:59;16.38;;;7.07;;
38909;SDS011;24676;51.360;12.354;2023-02-11T03:24:48;16.75;;;7.63;;
38909;SDS011;24676;51.360;12.354;2023-02-11T03:27:40;19.67;;;9.00;;
38909;SDS011;24676;51.360;12.354;2023-02-11T03:30:34;17.33;;;6.95;;
38909;SDS011;24676;51.360;12.354;2023-02-11T03:33:49;10.13;;;5.57;;
38909;SDS011;24676;51.360;12.354;2023-02-11T03:36:37;13.77;;;7.45;;
38909;SDS011;24676;51.360;12.354;2023-02-11T03:39:38;16.35;;;7.60;;
38909;SDS011;24676;51.360;12.354;2023-02-11T03:42:30;14.50;;;6.88;;
38909;SDS011;24676;51.360;12.354;2023-02-11T03:45:20;19.63;;;8.83;;
38909;SDS011;24676;51.360;12.354;2023-02-11T03:48:18;15.55;;;7.82;;
38909;SDS011;24676;51.360;12.354;2023-02-11T03:51:08;16.92;;;7.50;;
38909;SDS011;24676;51.360;12.354;2023-02-11T03:53:55;13.25;;;8.05;;
38909;SDS011;24676;51.360;12.354;2023-02-11T03:56:50;15.45;;;7.65;;
38909;SDS011;24676;51.360;12.354;2023-02-11T03:59:53;16.48;;;7.88;;
38909;SDS011;24676;51.360;12.354;2023-02-11T04:02:41;19.05;;;7.93;;
38909;SDS011;24676;51.360;12.354;2023-02-11T04:05:26;13.53;;;7.83;;
38909;SDS011;24676;51.360;12.354;2023-02-11T04:08:10;22.90;;;8.05;;
38909;SDS011;24676;51.360;12.354;2023-02-11T04:10:55;19.50;;;7.65;;
38909;SDS011;24676;51.360;12.354;2023-02-11T04:13:39;24.98;;;10.32;;
38909;SDS011;24676;51.360;12.354;2023-02-11T04:16:23;14.60;;;7.72;;
38909;SDS011;24676;51.360;12.354;2023-02-11T04:19:07;14.10;;;8.50;;
38909;SDS011;24676;51.360;12.354;2023-02-11T04:21:51;13.32;;;7.30;;
38909;SDS011;24676;51.360;12.354;2023-02-11T04:24:35;21.90;;;7.50;;
38909;SDS011;24676;51.360;12.354;2023-02-11T04:27:19;17.25;;;6.22;;
38909;SDS011;24676;51.360;12.354;2023-02-11T04:30:04;17.67;;;9.07;;
38909;SDS011;24676;51.360;12.354;2023-02-11T04:32:49;17.13;;;8.10;;
38909;SDS011;24676;51.360;12.354;2023-02-11T04:35:33;13.68;;;6.72;;
38909;SDS011;24676;51.360;12.354;2023-02-11T04:38:18;12.80;;;7.00;;
38909;SDS011;24676;51.360;12.354;2023-02-11T04:41:02;11.85;;;7.28;;
38909;SDS011;24676;51.360;12.354;2023-02-11T04:43:46;16.05;;;8.07;;
38909;SDS011;24676;51.360;12.354;2023-02-11T04:46:30;14.95;;;7.22;;
38909;SDS011;24676;51.360;12.354;2023-02-11T04:49:15;21.70;;;8.27;;
38909;SDS011;24676;51.360;12.354;2023-02-11T04:51:59;17.70;;;7.20;;
38909;SDS011;24676;51.360;12.354;2023-02-11T04:54:44;11.30;;;7.53;;
38909;SDS011;24676;51.360;12.354;2023-02-11T04:57:28;17.10;;;6.88;;
38909;SDS011;24676;51.360;12.354;2023-02-11T05:00:12;17.98;;;9.02;;
38909;SDS011;24676;51.360;12.354;2023-02-11T05:02:57;15.27;;;7.40;;
38909;SDS011;24676;51.360;12.354;2023-02-11T05:05:41;19.45;;;8.27;;
38909;SDS011;24676;51.360;12.354;2023-02-11T05:08:26;16.08;;;7.45;;
38909;SDS011;24676;51.360;12.354;2023-02-11T05:11:15;12.13;;;7.53;;
38909;SDS011;24676;51.360;12.354;2023-02-11T05:14:00;19.88;;;7.93;;
38909;SDS011;24676;51.360;12.354;2023-02-11T05:16:45;11.90;;;5.57;;
38909;SDS011;24676;51.360;12.354;2023-02-11T05:19:29;14.95;;;8.05;;
38909;SDS011;24676;51.360;12.354;2023-02-11T05:22:14;17.30;;;6.15;;
38909;SDS011;24676;51.360;12.354;2023-02-11T05:24:58;18.05;;;9.73;;
38909;SDS011;24676;51.360;12.354;2023-02-11T05:27:42;19.48;;;9.38;;
38909;SDS011;24676;51.360;12.354;2023-02-11T05:30:26;18.33;;;9.57;;
38909;SDS011;24676;51.360;12.354;2023-02-11T05:33:11;19.25;;;7.35;;
38909;SDS011;24676;51.360;12.354;2023-02-11T05:35:58;12.70;;;6.85;;
38909;SDS011;24676;51.360;12.354;2023-02-11T05:38:43;15.95;;;6.65;;
38909;SDS011;24676;51.360;12.354;2023-02-11T05:41:27;17.13;;;7.75;;
38909;SDS011;24676;51.360;12.354;2023-02-11T05:44:11;19.77;;;9.77;;
38909;SDS011;24676;51.360;12.354;2023-02-11T05:46:56;15.18;;;9.70;;
38909;SDS011;24676;51.360;12.354;2023-02-11T05:49:40;17.60;;;7.47;;
38909;SDS011;24676;51.360;12.354;2023-02-11T05:52:24;13.85;;;8.57;;
38909;SDS011;24676;51.360;12.354;2023-02-11T05:55:08;16.23;;;8.05;;
38909;SDS011;24676;51.360;12.354;2023-02-11T05:57:52;21.50;;;9.15;;
38909;SDS011;24676;51.360;12.354;2023-02-11T06:00:37;15.18;;;7.18;;
38909;SDS011;24676;51.360;12.354;2023-02-11T06:03:21;13.55;;;6.70;;
38909;SDS011;24676;51.360;12.354;2023-02-11T06:06:08;19.75;;;7.57;;
38909;SDS011;24676;51.360;12.354;2023-02-11T06:08:55;23.27;;;9.95;;
38909;SDS011;24676;51.360;12.354;2023-02-11T06:11:40;16.25;;;7.43;;
38909;SDS011;24676;51.360;12.354;2023-02-11T06:14:24;21.17;;;7.78;;
38909;SDS011;24676;51.360;12.354;2023-02-11T06:17:08;23.70;;;9.65;;
38909;SDS011;24676;51.360;12.354;2023-02-11T06:19:52;15.00;;;8.68;;
38909;SDS011;24676;51.360;12.354;2023-02-11T06:22:37;18.45;;;9.10;;
38909;SDS011;24676;51.360;12.354;2023-02-11T06:25:21;17.65;;;9.50;;
38909;SDS011;24676;51.360;12.354;2023-02-11T06:28:05;18.75;;;9.25;;
38909;SDS011;24676;51.360;12.354;2023-02-11T06:30:49;18.00;;;9.25;;
38909;SDS011;24676;51.360;12.354;2023-02-11T06:33:34;18.40;;;7.28;;
38909;SDS011;24676;51.360;12.354;2023-02-11T06:36:19;17.60;;;9.07;;
38909;SDS011;24676;51.360;12.354;2023-02-11T06:39:04;18.05;;;8.80;;
38909;SDS011;24676;51.360;12.354;2023-02-11T06:41:49;19.67;;;8.52;;
38909;SDS011;24676;51.360;12.354;2023-02-11T06:44:33;18.40;;;10.80;;
38909;SDS011;24676;51.360;12.354;2023-02-11T06:47:18;21.20;;;9.50;;
38909;SDS011;24676;51.360;12.354;2023-02-11T06:50:02;22.85;;;9.48;;
38909;SDS011;24676;51.360;12.354;2023-02-11T06:52:46;23.08;;;7.20;;
38909;SDS011;24676;51.360;12.354;2023-02-11T06:55:30;23.30;;;11.27;;
38909;SDS011;24676;51.360;12.354;2023-02-11T06:58:17;15.00;;;8.88;;
38909;SDS011;24676;51.360;12.354;2023-02-11T07:01:08;13.55;;;8.07;;
38909;SDS011;24676;51.360;12.354;2023-02-11T07:03:58;18.05;;;9.65;;
38909;SDS011;24676;51.360;12.354;2023-02-11T07:06:42;23.85;;;9.43;;
38909;SDS011;24676;51.360;12.354;2023-02-11T07:09:26;20.40;;;7.53;;
38909;SDS011;24676;51.360;12.354;2023-02-11T07:12:10;20.45;;;9.18;;
38909;SDS011;24676;51.360;12.354;2023-02-11T07:14:55;18.25;;;8.95;;
38909;SDS011;24676;51.360;12.354;2023-02-11T07:17:40;17.80;;;8.73;;
38909;SDS011;24676;51.360;12.354;2023-02-11T07:20:24;14.75;;;9.48;;
38909;SDS011;24676;51.360;12.354;2023-02-11T07:23:09;17.17;;;8.10;;
38909;SDS011;24676;51.360;12.354;2023-02-11T07:25:53;27.15;;;9.52;;
38909;SDS011;24676;51.360;12.354;2023-02-11T07:28:39;21.60;;;9.90;;
38909;SDS011;24676;51.360;12.354;2023-02-11T07:31:25;21.30;;;10.13;;
38909;SDS011;24676;51.360;12.354;2023-02-11T07:34:11;19.65;;;9.98;;
38909;SDS011;24676;51.360;12.354;2023-02-11T07:36:55;20.58;;;10.93;;
38909;SDS011;24676;51.360;12.354;2023-02-11T07:39:39;16.33;;;9.32;;
38909;SDS011;24676;51.360;12.354;2023-02-11T07:42:23;28.10;;;10.98;;
38909;SDS011;24676;51.360;12.354;2023-02-11T07:45:07;20.33;;;10.63;;
38909;SDS011;24676;51.360;12.354;2023-02-11T07:47:52;15.13;;;8.65;;
38909;SDS011;24676;51.360;12.354;2023-02-11T07:50:36;23.90;;;8.52;;
38909;SDS011;24676;51.360;12.354;2023-02-11T07:53:21;25.40;;;10.18;;
38909;SDS011;24676;51.360;12.354;2023-02-11T07:56:06;27.52;;;11.88;;
38909;SDS011;24676;51.360;12.354;2023-02-11T07:58:51;17.80;;;9.15;;
38909;SDS011;24676;51.360;12.354;2023-02-11T08:01:36;23.52;;;9.77;;
38909;SDS011;24676;51.360;12.354;2023-02-11T08:04:20;16.48;;;8.15;;
38909;SDS011;24676;51.360;12.354;2023-02-11T08:07:04;16.67;;;7.82;;
38909;SDS011;24676;51.360;12.354;2023-02-11T08:09:49;20.52;;;9.52;;
38909;SDS011;24676;51.360;12.354;2023-02-11T08:12:34;17.38;;;10.60;;
38909;SDS011;24676;51.360;12.354;2023-02-11T08:15:18;19.65;;;9.57;;
38909;SDS011;24676;51.360;12.354;2023-02-11T08:18:02;20.13;;;10.63;;
38909;SDS011;24676;51.360;12.354;2023-02-11T08:20:46;24.10;;;11.70;;
38909;SDS011;24676;51.360;12.354;2023-02-11T08:23:30;27.17;;;11.82;;
38909;SDS011;24676;51.360;12.354;2023-02-11T08:26:16;24.77;;;10.40;;
38909;SDS011;24676;51.360;12.354;2023-02-11T08:29:05;20.67;;;11.30;;
38909;SDS011;24676;51.360;12.354;2023-02-11T08:31:55;23.58;;;10.98;;
38909;SDS011;24676;51.360;12.354;2023-02-11T08:34:39;16.10;;;8.57;;
38909;SDS011;24676;51.360;12.354;2023-02-11T08:37:23;12.70;;;8.05;;
38909;SDS011;24676;51.360;12.354;2023-02-11T08:40:07;17.30;;;9.57;;
38909;SDS011;24676;51.360;12.354;2023-02-11T08:42:52;18.88;;;9.15;;
38909;SDS011;24676;51.360;12.354;2023-02-11T08:45:37;23.10;;;10.50;;
38909;SDS011;24676;51.360;12.354;2023-02-11T08:48:21;13.45;;;8.55;;
38909;SDS011;24676;51.360;12.354;2023-02-11T08:51:09;23.10;;;10.95;;
38909;SDS011;24676;51.360;12.354;2023-02-11T08:53:59;20.85;;;9.25;;
38909;SDS011;24676;51.360;12.354;2023-02-11T08:56:44;24.13;;;10.88;;
38909;SDS011;24676;51.360;12.354;2023-02-11T08:59:28;20.92;;;8.48;;
38909;SDS011;24676;51.360;12.354;2023-02-11T09:02:16;17.92;;;10.23;;
38909;SDS011;24676;51.360;12.354;2023-02-11T09:05:00;15.50;;;9.38;;
38909;SDS011;24676;51.360;12.354;2023-02-11T09:07:44;20.67;;;10.35;;
38909;SDS011;24676;51.360;12.354;2023-02-11T09:10:28;17.02;;;10.07;;
38909;SDS011;24676;51.360;12.354;2023-02-11T09:13:13;19.63;;;9.18;;
38909;SDS011;24676;51.360;12.354;2023-02-11T09:15:57;20.08;;;9.18;;
38909;SDS011;24676;51.360;12.354;2023-02-11T09:18:42;18.55;;;9.85;;
38909;SDS011;24676;51.360;12.354;2023-02-11T09:21:28;18.38;;;8.88;;
38909;SDS011;24676;51.360;12.354;2023-02-11T09:24:13;26.17;;;9.52;;
38909;SDS011;24676;51.360;12.354;2023-02-11T09:26:58;22.42;;;11.02;;
38909;SDS011;24676;51.360;12.354;2023-02-11T09:29:42;20.83;;;11.10;;
38909;SDS011;24676;51.360;12.354;2023-02-11T09:32:27;23.00;;;8.55;;
38909;SDS011;24676;51.360;12.354;2023-02-11T09:35:11;17.48;;;9.80;;
38909;SDS011;24676;51.360;12.354;2023-02-11T09:37:55;20.77;;;9.77;;
38909;SDS011;24676;51.360;12.354;2023-02-11T09:40:43;16.02;;;9.10;;
38909;SDS011;24676;51.360;12.354;2023-02-11T09:46:29;22.67;;;9.93;;
38909;SDS011;24676;51.360;12.354;2023-02-11T09:49:18;19.73;;;9.65;;
38909;SDS011;24676;51.360;12.354;2023-02-11T09:52:12;24.88;;;10.60;;
38909;SDS011;24676;51.360;12.354;2023-02-11T09:55:01;22.80;;;10.20;;
38909;SDS011;24676;51.360;12.354;2023-02-11T09:57:46;18.40;;;8.20;;
38909;SDS011;24676;51.360;12.354;2023-02-11T10:07:44;17.05;;;8.98;;
38909;SDS011;24676;51.360;12.354;2023-02-11T10:10:46;15.80;;;7.63;;
38909;SDS011;24676;51.360;12.354;2023-02-11T10:19:34;18.85;;;9.48;;
38909;SDS011;24676;51.360;12.354;2023-02-11T10:22:31;19.65;;;9.38;;
38909;SDS011;24676;51.360;12.354;2023-02-11T10:25:38;20.13;;;9.27;;
38909;SDS011;24676;51.360;12.354;2023-02-11T10:28:31;17.48;;;8.45;;
38909;SDS011;24676;51.360;12.354;2023-02-11T10:34:07;16.92;;;8.02;;
38909;SDS011;24676;51.360;12.354;2023-02-11T10:36:53;18.58;;;8.07;;
38909;SDS011;24676;51.360;12.354;2023-02-11T10:39:39;14.18;;;9.27;;
38909;SDS011;24676;51.360;12.354;2023-02-11T10:42:23;22.02;;;9.52;;
38909;SDS011;24676;51.360;12.354;2023-02-11T10:45:09;13.70;;;7.72;;
38909;SDS011;24676;51.360;12.354;2023-02-11T10:51:36;21.63;;;9.50;;
38909;SDS011;24676;51.360;12.354;2023-02-11T10:54:20;13.93;;;7.60;;
38909;SDS011;24676;51.360;12.354;2023-02-11T10:57:11;17.27;;;8.68;;
38909;SDS011;24676;51.360;12.354;2023-02-11T11:00:14;15.50;;;8.35;;
38909;SDS011;24676;51.360;12.354;2023-02-11T11:03:23;15.55;;;8.40;;
38909;SDS011;24676;51.360;12.354;2023-02-11T11:06:09;18.20;;;8.73;;
38909;SDS011;24676;51.360;12.354;2023-02-11T11:08:54;21.45;;;9.70;;
38909;SDS011;24676;51.360;12.354;2023-02-11T11:11:38;16.75;;;8.85;;
38909;SDS011;24676;51.360;12.354;2023-02-11T11:14:35;13.65;;;8.18;;
38909;SDS011;24676;51.360;12.354;2023-02-11T11:17:19;18.58;;;8.57;;
38909;SDS011;24676;51.360;12.354;2023-02-11T11:20:14;14.93;;;7.85;;
38909;SDS011;24676;51.360;12.354;2023-02-11T11:23:17;16.58;;;8.55;;
38909;SDS011;24676;51.360;12.354;2023-02-11T11:26:06;17.48;;;10.30;;
38909;SDS011;24676;51.360;12.354;2023-02-11T11:29:05;13.55;;;6.95;;
38909;SDS011;24676;51.360;12.354;2023-02-11T11:31:54;20.58;;;10.20;;
38909;SDS011;24676;51.360;12.354;2023-02-11T11:34:42;17.42;;;9.30;;
38909;SDS011;24676;51.360;12.354;2023-02-11T11:37:32;16.15;;;8.23;;
38909;SDS011;24676;51.360;12.354;2023-02-11T11:40:23;13.02;;;7.72;;
38909;SDS011;24676;51.360;12.354;2023-02-11T11:45:57;17.90;;;8.98;;
38909;SDS011;24676;51.360;12.354;2023-02-11T11:48:43;15.02;;;8.70;;
38909;SDS011;24676;51.360;12.354;2023-02-11T11:51:31;16.80;;;8.35;;
38909;SDS011;24676;51.360;12.354;2023-02-11T11:54:17;19.08;;;9.98;;
38909;SDS011;24676;51.360;12.354;2023-02-11T11:57:09;18.48;;;8.93;;
38909;SDS011;24676;51.360;12.354;2023-02-11T11:59:57;13.57;;;6.35;;
38909;SDS011;24676;51.360;12.354;2023-02-11T12:11:42;17.73;;;7.88;;
38909;SDS011;24676;51.360;12.354;2023-02-11T12:14:53;15.98;;;9.15;;
38909;SDS011;24676;51.360;12.354;2023-02-11T12:17:57;13.93;;;8.52;;
38909;SDS011;24676;51.360;12.354;2023-02-11T12:21:03;22.40;;;8.18;;
38909;SDS011;24676;51.360;12.354;2023-02-11T12:33:30;19.85;;;9.10;;
38909;SDS011;24676;51.360;12.354;2023-02-11T12:57:59;17.23;;;9.07;;
38909;SDS011;24676;51.360;12.354;2023-02-11T13:00:46;18.27;;;9.07;;
38909;SDS011;24676;51.360;12.354;2023-02-11T13:03:39;17.27;;;7.78;;
38909;SDS011;24676;51.360;12.354;2023-02-11T13:06:39;14.35;;;8.82;;
38909;SDS011;24676;51.360;12.354;2023-02-11T13:09:29;14.10;;;7.97;;
38909;SDS011;24676;51.360;12.354;2023-02-11T13:12:18;40.38;;;9.70;;
38909;SDS011;24676;51.360;12.354;2023-02-11T13:15:23;10.57;;;7.75;;
38909;SDS011;24676;51.360;12.354;2023-02-11T13:18:15;16.05;;;7.95;;
38909;SDS011;24676;51.360;12.354;2023-02-11T13:33:18;17.77;;;8.85;;
38909;SDS011;24676;51.360;12.354;2023-02-11T13:36:17;12.38;;;8.73;;
38909;SDS011;24676;51.360;12.354;2023-02-11T13:39:03;15.35;;;7.50;;
38909;SDS011;24676;51.360;12.354;2023-02-11T13:41:49;12.85;;;9.23;;
38909;SDS011;24676;51.360;12.354;2023-02-11T13:44:34;19.25;;;8.60;;
38909;SDS011;24676;51.360;12.354;2023-02-11T13:47:29;13.68;;;6.82;;
38909;SDS011;24676;51.360;12.354;2023-02-11T13:50:20;17.48;;;8.43;;
38909;SDS011;24676;51.360;12.354;2023-02-11T13:53:06;8.73;;;7.00;;
38909;SDS011;24676;51.360;12.354;2023-02-11T13:55:52;18.33;;;9.30;;
38909;SDS011;24676;51.360;12.354;2023-02-11T13:59:42;13.98;;;7.68;;
38909;SDS011;24676;51.360;12.354;2023-02-11T14:05:31;14.57;;;8.65;;
38909;SDS011;24676;51.360;12.354;2023-02-11T14:08:34;19.15;;;8.73;;
38909;SDS011;24676;51.360;12.354;2023-02-11T14:14:27;20.00;;;9.70;;
38909;SDS011;24676;51.360;12.354;2023-02-11T14:17:16;15.48;;;8.77;;
38909;SDS011;24676;51.360;12.354;2023-02-11T14:20:02;18.27;;;7.95;;
38909;SDS011;24676;51.360;12.354;2023-02-11T14:23:15;20.02;;;7.40;;
38909;SDS011;24676;51.360;12.354;2023-02-11T14:43:53;18.73;;;7.45;;
38909;SDS011;24676;51.360;12.354;2023-02-11T14:46:47;15.02;;;8.15;;
38909;SDS011;24676;51.360;12.354;2023-02-11T14:49:34;17.02;;;8.15;;
38909;SDS011;24676;51.360;12.354;2023-02-11T14:58:17;13.27;;;7.47;;
38909;SDS011;24676;51.360;12.354;2023-02-11T15:04:27;14.27;;;7.38;;
38909;SDS011;24676;51.360;12.354;2023-02-11T15:07:13;18.20;;;8.27;;
38909;SDS011;24676;51.360;12.354;2023-02-11T15:09:58;10.63;;;6.78;;
38909;SDS011;24676;51.360;12.354;2023-02-11T15:12:44;15.55;;;7.93;;
38909;SDS011;24676;51.360;12.354;2023-02-11T15:15:31;18.75;;;7.95;;
38909;SDS011;24676;51.360;12.354;2023-02-11T15:18:19;17.25;;;8.15;;
38909;SDS011;24676;51.360;12.354;2023-02-11T15:21:06;13.23;;;7.10;;
38909;SDS011;24676;51.360;12.354;2023-02-11T15:23:55;20.45;;;8.10;;
38909;SDS011;24676;51.360;12.354;2023-02-11T15:26:55;15.35;;;7.82;;
38909;SDS011;24676;51.360;12.354;2023-02-11T15:29:45;17.30;;;9.35;;
38909;SDS011;24676;51.360;12.354;2023-02-11T15:32:33;11.00;;;6.70;;
38909;SDS011;24676;51.360;12.354;2023-02-11T15:35:19;16.75;;;7.20;;
38909;SDS011;24676;51.360;12.354;2023-02-11T15:38:04;11.88;;;7.20;;
38909;SDS011;24676;51.360;12.354;2023-02-11T15:40:53;12.95;;;8.63;;
38909;SDS011;24676;51.360;12.354;2023-02-11T15:43:46;21.13;;;7.82;;
38909;SDS011;24676;51.360;12.354;2023-02-11T15:46:36;9.50;;;4.95;;
38909;SDS011;24676;51.360;12.354;2023-02-11T15:49:22;15.65;;;6.50;;
38909;SDS011;24676;51.360;12.354;2023-02-11T15:52:08;10.32;;;6.22;;
38909;SDS011;24676;51.360;12.354;2023-02-11T15:54:53;14.07;;;6.70;;
38909;SDS011;24676;51.360;12.354;2023-02-11T15:57:45;14.95;;;8.00;;
38909;SDS011;24676;51.360;12.354;2023-02-11T16:00:36;12.80;;;5.60;;
38909;SDS011;24676;51.360;12.354;2023-02-11T16:03:28;15.73;;;7.88;;
38909;SDS011;24676;51.360;12.354;2023-02-11T16:06:22;12.32;;;5.90;;
38909;SDS011;24676;51.360;12.354;2023-02-11T16:11:55;12.70;;;6.80;;
38909;SDS011;24676;51.360;12.354;2023-02-11T16:14:41;9.75;;;6.85;;
38909;SDS011;24676;51.360;12.354;2023-02-11T16:17:29;11.73;;;5.38;;
38909;SDS011;24676;51.360;12.354;2023-02-11T16:20:17;15.88;;;5.72;;
38909;SDS011;24676;51.360;12.354;2023-02-11T16:23:02;14.88;;;6.85;;
38909;SDS011;24676;51.360;12.354;2023-02-11T16:25:49;9.48;;;5.55;;
38909;SDS011;24676;51.360;12.354;2023-02-11T16:28:38;27.27;;;10.35;;
38909;SDS011;24676;51.360;12.354;2023-02-11T16:31:23;17.67;;;8.75;;
38909;SDS011;24676;51.360;12.354;2023-02-11T16:34:17;15.98;;;6.35;;
38909;SDS011;24676;51.360;12.354;2023-02-11T16:37:08;12.18;;;6.15;;
38909;SDS011;24676;51.360;12.354;2023-02-11T16:39:56;7.30;;;5.43;;
38909;SDS011;24676;51.360;12.354;2023-02-11T16:42:41;9.10;;;5.63;;
38909;SDS011;24676;51.360;12.354;2023-02-11T16:45:25;11.38;;;6.68;;
38909;SDS011;24676;51.360;12.354;2023-02-11T16:48:10;9.73;;;5.78;;
38909;SDS011;24676;51.360;12.354;2023-02-11T16:50:58;11.52;;;5.90;;
38909;SDS011;24676;51.360;12.354;2023-02-11T16:53:42;9.20;;;4.00;;
38909;SDS011;24676;51.360;12.354;2023-02-11T16:56:26;10.15;;;5.25;;
38909;SDS011;24676;51.360;12.354;2023-02-11T16:59:11;14.07;;;5.55;;
38909;SDS011;24676;51.360;12.354;2023-02-11T17:01:55;9.00;;;5.00;;
38909;SDS011;24676;51.360;12.354;2023-02-11T17:04:40;14.05;;;6.88;;
38909;SDS011;24676;51.360;12.354;2023-02-11T17:07:25;11.10;;;5.78;;
38909;SDS011;24676;51.360;12.354;2023-02-11T17:10:27;10.77;;;5.65;;
38909;SDS011;24676;51.360;12.354;2023-02-11T17:13:15;10.55;;;6.38;;
38909;SDS011;24676;51.360;12.354;2023-02-11T17:15:59;7.63;;;4.40;;
38909;SDS011;24676;51.360;12.354;2023-02-11T17:18:44;10.43;;;4.97;;
38909;SDS011;24676;51.360;12.354;2023-02-11T17:21:28;12.57;;;6.53;;
38909;SDS011;24676;51.360;12.354;2023-02-11T17:24:14;10.57;;;6.28;;
38909;SDS011;24676;51.360;12.354;2023-02-11T17:26:59;12.60;;;6.28;;
38909;SDS011;24676;51.360;12.354;2023-02-11T17:29:43;7.68;;;5.13;;
38909;SDS011;24676;51.360;12.354;2023-02-11T17:32:27;6.90;;;5.95;;
38909;SDS011;24676;51.360;12.354;2023-02-11T17:35:11;11.45;;;6.13;;
38909;SDS011;24676;51.360;12.354;2023-02-11T17:37:55;8.00;;;3.85;;
38909;SDS011;24676;51.360;12.354;2023-02-11T17:40:41;9.70;;;6.50;;
38909;SDS011;24676;51.360;12.354;2023-02-11T17:43:25;10.05;;;4.93;;
38909;SDS011;24676;51.360;12.354;2023-02-11T17:46:10;6.90;;;4.38;;
38909;SDS011;24676;51.360;12.354;2023-02-11T17:48:56;10.73;;;5.45;;
38909;SDS011;24676;51.360;12.354;2023-02-11T17:51:41;9.32;;;5.13;;
38909;SDS011;24676;51.360;12.354;2023-02-11T17:54:26;13.15;;;7.45;;
38909;SDS011;24676;51.360;12.354;2023-02-11T17:57:11;13.20;;;5.57;;
38909;SDS011;24676;51.360;12.354;2023-02-11T17:59:55;12.80;;;5.72;;
38909;SDS011;24676;51.360;12.354;2023-02-11T18:02:39;10.73;;;6.15;;
38909;SDS011;24676;51.360;12.354;2023-02-11T18:05:24;11.60;;;6.95;;
38909;SDS011;24676;51.360;12.354;2023-02-11T18:08:09;7.70;;;5.35;;
38909;SDS011;24676;51.360;12.354;2023-02-11T18:10:54;17.77;;;7.30;;
38909;SDS011;24676;51.360;12.354;2023-02-11T18:13:38;15.90;;;7.85;;
38909;SDS011;24676;51.360;12.354;2023-02-11T18:16:23;13.57;;;6.55;;
38909;SDS011;24676;51.360;12.354;2023-02-11T18:19:09;12.70;;;6.55;;
38909;SDS011;24676;51.360;12.354;2023-02-11T18:21:55;9.80;;;7.20;;
38909;SDS011;24676;51.360;12.354;2023-02-11T18:24:40;19.05;;;8.40;;
38909;SDS011;24676;51.360;12.354;2023-02-11T18:27:24;14.27;;;6.13;;
38909;SDS011;24676;51.360;12.354;2023-02-11T18:30:13;15.30;;;8.10;;
38909;SDS011;24676;51.360;12.354;2023-02-11T18:32:59;14.77;;;7.95;;
38909;SDS011;24676;51.360;12.354;2023-02-11T18:35:43;14.73;;;7.55;;
38909;SDS011;24676;51.360;12.354;2023-02-11T18:38:28;16.88;;;9.48;;